createdAt,value
2018-03-08T00:00:48.590Z,705.05
2018-03-08T00:01:49.067Z,705.23
2018-03-08T00:02:49.527Z,705.06
2018-03-08T00:03:49.992Z,704.85
2018-03-08T00:04:50.462Z,705.42
2018-03-08T00:05:50.929Z,705.05
2018-03-08T00:06:51.396Z,705.02
2018-03-08T00:07:51.863Z,705.22
2018-03-08T00:08:52.332Z,705.22
2018-03-08T00:09:52.802Z,705.12
2018-03-08T00:10:53.266Z,705.24
2018-03-08T00:11:53.735Z,705.27
2018-03-08T00:12:54.201Z,704.96
2018-03-08T00:13:54.668Z,705.41
2018-03-08T00:14:55.138Z,705.31
2018-03-08T00:15:55.607Z,705.31
2018-03-08T00:16:56.074Z,705.49
2018-03-08T00:17:56.541Z,705.28
2018-03-08T00:18:57.211Z,705.15
2018-03-08T00:19:57.475Z,705.41
2018-03-08T00:20:57.945Z,705.33
2018-03-08T00:21:58.414Z,705.08
2018-03-08T00:22:58.880Z,705.04
2018-03-08T00:23:59.346Z,705.09
2018-03-08T00:24:59.816Z,704.99
2018-03-08T00:26:00.286Z,705.40
2018-03-08T00:27:00.751Z,705.41
2018-03-08T00:28:01.218Z,705.48
2018-03-08T00:29:01.687Z,704.99
2018-03-08T00:30:02.155Z,704.91
2018-03-08T00:31:02.620Z,704.98
2018-03-08T00:32:03.089Z,705.30
2018-03-08T00:33:03.556Z,705.20
2018-03-08T00:34:04.229Z,705.28
2018-03-08T00:35:04.494Z,705.01
2018-03-08T00:36:04.960Z,704.88
2018-03-08T00:37:05.428Z,705.33
2018-03-08T00:38:05.895Z,705.41
2018-03-08T00:39:06.374Z,705.20
2018-03-08T00:40:06.835Z,705.32
2018-03-08T00:41:07.298Z,705.61
2018-03-08T00:42:07.767Z,705.56
2018-03-08T00:43:08.236Z,705.33
2018-03-08T00:44:08.699Z,704.84
2018-03-08T00:45:09.169Z,705.15
2018-03-08T00:46:09.637Z,705.04
2018-03-08T00:47:10.106Z,705.22
2018-03-08T00:48:10.571Z,705.31
2018-03-08T00:49:11.040Z,705.12
2018-03-08T00:50:11.506Z,705.13
2018-03-08T00:51:11.975Z,705.18
2018-03-08T00:52:12.442Z,705.15
2018-03-08T00:53:12.908Z,705.04
2018-03-08T00:54:13.379Z,705.09
2018-03-08T00:55:13.844Z,705.20
2018-03-08T00:56:14.310Z,705.03
2018-03-08T00:57:14.782Z,705.34
2018-03-08T00:58:15.247Z,705.23
2018-03-08T00:59:15.713Z,705.38
2018-03-08T01:00:16.181Z,705.25
2018-03-08T01:01:16.649Z,705.15
2018-03-08T01:02:17.116Z,705.17
2018-03-08T01:03:17.587Z,705.16
2018-03-08T01:04:18.051Z,705.28
2018-03-08T01:05:18.518Z,705.18
2018-03-08T01:06:18.986Z,705.56
2018-03-08T01:07:19.452Z,705.51
2018-03-08T01:08:19.920Z,705.55
2018-03-08T01:09:20.416Z,705.53
2018-03-08T01:10:20.856Z,705.50
2018-03-08T01:11:21.398Z,705.07
2018-03-08T01:12:21.789Z,704.96
2018-03-08T01:13:22.259Z,705.30
2018-03-08T01:14:22.774Z,705.02
2018-03-08T01:15:23.193Z,705.29
2018-03-08T01:16:23.659Z,705.53
2018-03-08T01:17:24.128Z,705.07
2018-03-08T01:18:24.596Z,705.15
2018-03-08T01:19:25.062Z,705.31
2018-03-08T01:20:25.528Z,705.29
2018-03-08T01:21:25.994Z,705.22
2018-03-08T01:22:26.466Z,705.51
2018-03-08T01:23:26.932Z,705.24
2018-03-08T01:24:27.399Z,705.43
2018-03-08T01:25:27.865Z,705.37
2018-03-08T01:26:28.333Z,705.47
2018-03-08T01:27:28.801Z,705.46
2018-03-08T01:28:29.268Z,705.38
2018-03-08T01:29:29.786Z,705.69
2018-03-08T01:30:30.202Z,705.53
2018-03-08T01:31:30.667Z,705.46
2018-03-08T01:32:31.137Z,705.24
2018-03-08T01:33:31.603Z,705.36
2018-03-08T01:34:32.222Z,705.62
2018-03-08T01:35:32.539Z,705.75
2018-03-08T01:36:33.004Z,705.70
2018-03-08T01:37:33.470Z,705.54
2018-03-08T01:38:33.939Z,705.34
2018-03-08T01:39:34.413Z,705.09
2018-03-08T01:40:34.876Z,705.59
2018-03-08T01:41:35.340Z,705.51
2018-03-08T01:42:35.811Z,705.63
2018-03-08T01:43:36.276Z,705.34
2018-03-08T01:44:36.792Z,705.56
2018-03-08T01:45:37.213Z,705.57
2018-03-08T01:46:37.677Z,705.53
2018-03-08T01:47:38.144Z,705.65
2018-03-08T01:48:38.612Z,705.70
2018-03-08T01:49:39.078Z,705.63
2018-03-08T01:50:39.545Z,705.65
2018-03-08T01:51:40.018Z,705.74
2018-03-08T01:52:40.480Z,705.60
2018-03-08T01:53:40.945Z,705.37
2018-03-08T01:54:41.568Z,705.65
2018-03-08T01:55:41.880Z,705.78
2018-03-08T01:56:42.347Z,705.62
2018-03-08T01:57:42.814Z,705.65
2018-03-08T01:58:43.282Z,705.55
2018-03-08T01:59:43.749Z,705.43
2018-03-08T02:00:44.217Z,705.34
2018-03-08T02:01:44.683Z,705.46
2018-03-08T02:02:45.152Z,705.31
2018-03-08T02:03:45.617Z,705.44
2018-03-08T02:04:46.084Z,705.73
2018-03-08T02:05:46.549Z,705.72
2018-03-08T02:06:47.019Z,705.48
2018-03-08T02:07:47.484Z,705.58
2018-03-08T02:08:47.954Z,705.61
2018-03-08T02:09:48.423Z,705.72
2018-03-08T02:10:48.889Z,705.59
2018-03-08T02:11:49.355Z,705.48
2018-03-08T02:12:49.821Z,705.42
2018-03-08T02:13:50.287Z,705.41
2018-03-08T02:14:50.756Z,705.36
2018-03-08T02:15:51.221Z,705.34
2018-03-08T02:16:51.690Z,705.65
2018-03-08T02:17:52.154Z,705.54
2018-03-08T02:18:52.623Z,705.64
2018-03-08T02:19:53.090Z,705.49
2018-03-08T02:20:53.558Z,705.46
2018-03-08T02:21:54.023Z,705.61
2018-03-08T02:22:54.493Z,705.30
2018-03-08T02:23:54.958Z,705.62
2018-03-08T02:24:55.425Z,705.41
2018-03-08T02:25:55.892Z,705.47
2018-03-08T02:26:56.360Z,705.55
2018-03-08T02:27:56.825Z,705.19
2018-03-08T02:28:57.294Z,705.69
2018-03-08T02:29:57.758Z,705.54
2018-03-08T02:30:58.227Z,705.40
2018-03-08T02:31:58.692Z,705.67
2018-03-08T02:32:59.159Z,705.54
2018-03-08T02:33:59.632Z,705.72
2018-03-08T02:35:00.146Z,705.56
2018-03-08T02:36:00.560Z,705.54
2018-03-08T02:37:01.028Z,705.64
2018-03-08T02:38:01.496Z,705.63
2018-03-08T02:39:01.962Z,705.79
2018-03-08T02:40:02.583Z,705.58
2018-03-08T02:41:02.896Z,705.84
2018-03-08T02:42:03.361Z,705.84
2018-03-08T02:43:03.830Z,705.55
2018-03-08T02:44:04.300Z,705.63
2018-03-08T02:45:04.774Z,705.50
2018-03-08T02:46:05.228Z,705.63
2018-03-08T02:47:05.699Z,705.88
2018-03-08T02:48:06.163Z,705.71
2018-03-08T02:49:06.631Z,705.56
2018-03-08T02:50:07.096Z,705.68
2018-03-08T02:51:07.566Z,705.50
2018-03-08T02:52:08.030Z,705.66
2018-03-08T02:53:08.496Z,705.75
2018-03-08T02:54:08.964Z,705.73
2018-03-08T02:55:09.433Z,705.37
2018-03-08T02:56:09.897Z,705.28
2018-03-08T02:57:10.362Z,705.60
2018-03-08T02:58:10.830Z,705.75
2018-03-08T02:59:11.300Z,705.57
2018-03-08T03:00:11.764Z,705.73
2018-03-08T03:01:12.231Z,705.69
2018-03-08T03:02:12.696Z,705.70
2018-03-08T03:03:13.164Z,705.60
2018-03-08T03:04:13.634Z,705.65
2018-03-08T03:05:14.148Z,705.62
2018-03-08T03:06:14.564Z,705.55
2018-03-08T03:07:15.030Z,705.56
2018-03-08T03:08:15.498Z,705.49
2018-03-08T03:09:15.970Z,705.69
2018-03-08T03:10:16.480Z,705.51
2018-03-08T03:11:16.901Z,705.44
2018-03-08T03:12:17.364Z,705.64
2018-03-08T03:13:17.831Z,705.67
2018-03-08T03:14:18.297Z,705.76
2018-03-08T03:15:18.798Z,705.60
2018-03-08T03:16:19.231Z,705.89
2018-03-08T03:17:19.698Z,705.89
2018-03-08T03:18:20.164Z,705.89
2018-03-08T03:19:20.632Z,705.59
2018-03-08T03:20:21.098Z,705.68
2018-03-08T03:21:21.562Z,705.74
2018-03-08T03:22:22.030Z,705.83
2018-03-08T03:23:22.497Z,705.82
2018-03-08T03:24:22.964Z,705.81
2018-03-08T03:25:23.480Z,705.76
2018-03-08T03:26:23.897Z,705.71
2018-03-08T03:27:24.363Z,705.76
2018-03-08T03:28:24.829Z,705.72
2018-03-08T03:29:25.298Z,705.77
2018-03-08T03:30:25.764Z,705.90
2018-03-08T03:31:26.233Z,705.83
2018-03-08T03:32:26.698Z,705.71
2018-03-08T03:33:27.164Z,705.86
2018-03-08T03:34:27.630Z,705.89
2018-03-08T03:35:28.147Z,705.84
2018-03-08T03:36:28.564Z,705.93
2018-03-08T03:37:29.029Z,706.05
2018-03-08T03:38:29.495Z,706.01
2018-03-08T03:39:29.964Z,706.06
2018-03-08T03:40:30.633Z,705.91
2018-03-08T03:41:30.896Z,705.85
2018-03-08T03:42:31.365Z,705.95
2018-03-08T03:43:31.829Z,706.03
2018-03-08T03:44:32.298Z,706.01
2018-03-08T03:45:32.761Z,706.03
2018-03-08T03:46:33.231Z,705.89
2018-03-08T03:47:33.698Z,705.81
2018-03-08T03:48:34.163Z,705.74
2018-03-08T03:49:34.629Z,705.76
2018-03-08T03:50:35.095Z,705.85
2018-03-08T03:51:35.561Z,705.59
2018-03-08T03:52:36.036Z,705.77
2018-03-08T03:53:36.494Z,705.55
2018-03-08T03:54:36.963Z,705.93
2018-03-08T03:55:37.429Z,705.81
2018-03-08T03:56:37.898Z,705.87
2018-03-08T03:57:38.365Z,705.78
2018-03-08T03:58:38.827Z,705.92
2018-03-08T03:59:39.296Z,706.08
2018-03-08T04:00:39.811Z,705.84
2018-03-08T04:01:40.229Z,706.10
2018-03-08T04:02:40.698Z,705.86
2018-03-08T04:03:41.161Z,706.01
2018-03-08T04:04:41.627Z,706.07
2018-03-08T04:05:42.098Z,706.04
2018-03-08T04:06:42.561Z,705.91
2018-03-08T04:07:43.030Z,705.79
2018-03-08T04:08:43.496Z,705.86
2018-03-08T04:09:43.959Z,706.03
2018-03-08T04:10:44.478Z,705.99
2018-03-08T04:11:44.893Z,706.15
2018-03-08T04:12:45.360Z,706.09
2018-03-08T04:13:45.826Z,706.13
2018-03-08T04:14:46.293Z,705.78
2018-03-08T04:15:46.761Z,705.99
2018-03-08T04:16:47.228Z,705.94
2018-03-08T04:17:47.693Z,706.11
2018-03-08T04:18:48.161Z,706.05
2018-03-08T04:19:48.626Z,706.17
2018-03-08T04:20:49.144Z,706.04
2018-03-08T04:21:49.560Z,705.74
2018-03-08T04:22:50.026Z,705.76
2018-03-08T04:23:50.494Z,706.10
2018-03-08T04:24:50.960Z,705.76
2018-03-08T04:25:51.426Z,705.97
2018-03-08T04:26:51.893Z,705.64
2018-03-08T04:27:52.360Z,706.04
2018-03-08T04:28:52.828Z,705.98
2018-03-08T04:29:53.291Z,706.02
2018-03-08T04:30:53.761Z,705.78
2018-03-08T04:31:54.227Z,705.92
2018-03-08T04:32:54.695Z,705.91
2018-03-08T04:33:55.162Z,706.30
2018-03-08T04:34:55.627Z,706.48
2018-03-08T04:35:56.141Z,706.15
2018-03-08T04:36:56.560Z,706.17
2018-03-08T04:37:57.024Z,706.11
2018-03-08T04:38:57.491Z,705.96
2018-03-08T04:39:57.957Z,705.92
2018-03-08T04:40:58.425Z,706.30
2018-03-08T04:41:58.889Z,706.32
2018-03-08T04:42:59.359Z,706.40
2018-03-08T04:43:59.823Z,706.25
2018-03-08T04:45:00.290Z,706.13
2018-03-08T04:46:00.757Z,706.21
2018-03-08T04:47:01.224Z,706.31
2018-03-08T04:48:01.691Z,706.28
2018-03-08T04:49:02.159Z,706.30
2018-03-08T04:50:02.623Z,706.06
2018-03-08T04:51:03.090Z,706.14
2018-03-08T04:52:03.557Z,706.30
2018-03-08T04:53:04.021Z,706.15
2018-03-08T04:54:04.487Z,706.38
2018-03-08T04:55:04.956Z,706.33
2018-03-08T04:56:05.422Z,706.20
2018-03-08T04:57:05.887Z,706.41
2018-03-08T04:58:06.352Z,706.30
2018-03-08T04:59:06.822Z,706.22
2018-03-08T05:00:07.286Z,706.40
2018-03-08T05:01:07.834Z,706.33
2018-03-08T05:02:08.221Z,706.28
2018-03-08T05:03:08.686Z,706.48
2018-03-08T05:04:09.153Z,706.49
2018-03-08T05:05:09.621Z,706.38
2018-03-08T05:06:10.091Z,706.13
2018-03-08T05:07:10.552Z,706.36
2018-03-08T05:08:11.019Z,706.32
2018-03-08T05:09:11.486Z,706.31
2018-03-08T05:10:11.953Z,706.49
2018-03-08T05:11:12.470Z,706.29
2018-03-08T05:12:12.884Z,706.20
2018-03-08T05:13:13.351Z,706.37
2018-03-08T05:14:13.817Z,706.46
2018-03-08T05:15:14.286Z,706.32
2018-03-08T05:16:14.752Z,706.25
2018-03-08T05:17:15.219Z,706.38
2018-03-08T05:18:15.683Z,706.39
2018-03-08T05:19:16.149Z,706.37
2018-03-08T05:20:16.619Z,706.48
2018-03-08T05:21:17.085Z,706.45
2018-03-08T05:22:17.553Z,706.47
2018-03-08T05:23:18.017Z,706.43
2018-03-08T05:24:18.484Z,706.42
2018-03-08T05:25:18.950Z,706.52
2018-03-08T05:26:19.420Z,706.58
2018-03-08T05:27:19.884Z,706.58
2018-03-08T05:28:20.349Z,706.49
2018-03-08T05:29:20.815Z,706.61
2018-03-08T05:30:21.282Z,706.59
2018-03-08T05:31:21.749Z,706.70
2018-03-08T05:32:22.216Z,706.65
2018-03-08T05:33:22.683Z,706.64
2018-03-08T05:34:23.150Z,706.68
2018-03-08T05:35:23.614Z,706.70
2018-03-08T05:36:24.084Z,706.77
2018-03-08T05:37:24.547Z,706.78
2018-03-08T05:38:25.016Z,706.74
2018-03-08T05:39:25.481Z,706.80
2018-03-08T05:40:25.950Z,706.78
2018-03-08T05:41:26.464Z,706.84
2018-03-08T05:42:26.886Z,706.81
2018-03-08T05:43:27.348Z,706.87
2018-03-08T05:44:27.815Z,706.84
2018-03-08T05:45:28.283Z,706.83
2018-03-08T05:46:28.747Z,706.86
2018-03-08T05:47:29.215Z,706.82
2018-03-08T05:48:29.681Z,706.79
2018-03-08T05:49:30.148Z,706.84
2018-03-08T05:50:30.612Z,706.80
2018-03-08T05:51:31.130Z,706.87
2018-03-08T05:52:31.546Z,706.87
2018-03-08T05:53:32.014Z,706.91
2018-03-08T05:54:32.481Z,706.88
2018-03-08T05:55:32.946Z,706.92
2018-03-08T05:56:33.414Z,706.86
2018-03-08T05:57:33.881Z,706.88
2018-03-08T05:58:34.351Z,706.90
2018-03-08T05:59:34.814Z,706.90
2018-03-08T06:00:35.280Z,706.93
2018-03-08T06:01:35.798Z,706.92
2018-03-08T06:02:36.212Z,706.92
2018-03-08T06:03:36.681Z,706.98
2018-03-08T06:04:37.147Z,706.98
2018-03-08T06:05:37.615Z,707.06
2018-03-08T06:06:38.079Z,707.07
2018-03-08T06:07:38.570Z,707.04
2018-03-08T06:08:39.013Z,707.02
2018-03-08T06:09:39.483Z,707.00
2018-03-08T06:10:39.948Z,707.06
2018-03-08T06:11:40.464Z,706.99
2018-03-08T06:12:40.881Z,707.02
2018-03-08T06:13:41.350Z,707.05
2018-03-08T06:14:41.814Z,707.07
2018-03-08T06:15:42.280Z,707.13
2018-03-08T06:16:42.748Z,707.16
2018-03-08T06:17:43.215Z,707.13
2018-03-08T06:18:43.683Z,707.16
2018-03-08T06:19:44.148Z,707.22
2018-03-08T06:20:44.618Z,707.09
2018-03-08T06:21:45.135Z,707.16
2018-03-08T06:22:45.552Z,707.16
2018-03-08T06:23:46.018Z,707.23
2018-03-08T06:24:46.484Z,707.21
2018-03-08T06:25:46.951Z,707.14
2018-03-08T06:26:47.618Z,707.16
2018-03-08T06:27:47.889Z,707.25
2018-03-08T06:28:48.350Z,707.19
2018-03-08T06:29:48.818Z,707.26
2018-03-08T06:30:49.285Z,707.28
2018-03-08T06:31:49.800Z,707.32
2018-03-08T06:32:50.221Z,707.33
2018-03-08T06:33:50.685Z,707.24
2018-03-08T06:34:51.154Z,707.25
2018-03-08T06:35:51.617Z,707.30
2018-03-08T06:36:52.134Z,707.27
2018-03-08T06:37:52.551Z,707.37
2018-03-08T06:38:53.019Z,707.37
2018-03-08T06:39:53.485Z,707.44
2018-03-08T06:40:53.954Z,707.39
2018-03-08T06:41:54.422Z,707.42
2018-03-08T06:42:54.886Z,707.47
2018-03-08T06:43:55.353Z,707.46
2018-03-08T06:44:55.821Z,707.40
2018-03-08T06:45:56.286Z,707.50
2018-03-08T06:46:56.958Z,707.41
2018-03-08T06:47:57.220Z,707.38
2018-03-08T06:48:57.690Z,707.40
2018-03-08T06:49:58.155Z,707.40
2018-03-08T06:50:58.623Z,707.43
2018-03-08T06:51:59.168Z,707.43
2018-03-08T06:52:59.558Z,707.47
2018-03-08T06:54:00.027Z,707.50
2018-03-08T06:55:00.490Z,707.46
2018-03-08T06:56:00.957Z,707.46
2018-03-08T06:57:01.426Z,707.53
2018-03-08T06:58:01.889Z,707.45
2018-03-08T06:59:02.355Z,707.45
2018-03-08T07:00:02.824Z,707.51
2018-03-08T07:01:03.294Z,707.50
2018-03-08T07:02:03.760Z,707.46
2018-03-08T07:03:04.227Z,707.41
2018-03-08T07:04:04.696Z,707.41
2018-03-08T07:05:05.164Z,707.45
2018-03-08T07:06:05.625Z,707.45
2018-03-08T07:07:06.092Z,707.42
2018-03-08T07:08:06.559Z,707.46
2018-03-08T07:09:07.030Z,707.50
2018-03-08T07:10:07.496Z,707.54
2018-03-08T07:11:07.961Z,707.50
2018-03-08T07:12:08.479Z,707.52
2018-03-08T07:13:08.901Z,707.54
2018-03-08T07:14:09.362Z,707.51
2018-03-08T07:15:09.832Z,707.58
2018-03-08T07:16:10.305Z,707.51
2018-03-08T07:17:10.766Z,707.60
2018-03-08T07:18:11.233Z,707.59
2018-03-08T07:19:11.699Z,707.49
2018-03-08T07:20:12.166Z,707.52
2018-03-08T07:21:12.635Z,707.49
2018-03-08T07:22:13.100Z,707.57
2018-03-08T07:23:13.569Z,707.59
2018-03-08T07:24:14.034Z,707.54
2018-03-08T07:25:14.503Z,707.49
2018-03-08T07:26:14.969Z,707.58
2018-03-08T07:27:15.436Z,707.58
2018-03-08T07:28:15.905Z,707.59
2018-03-08T07:29:16.371Z,707.53
2018-03-08T07:30:16.839Z,707.58
2018-03-08T07:31:17.305Z,707.51
2018-03-08T07:32:17.773Z,707.57
2018-03-08T07:33:18.242Z,707.59
2018-03-08T07:34:18.708Z,707.70
2018-03-08T07:35:19.177Z,707.69
2018-03-08T07:36:19.643Z,707.63
2018-03-08T07:37:20.113Z,707.60
2018-03-08T07:38:20.578Z,707.47
2018-03-08T07:39:21.047Z,707.39
2018-03-08T07:40:21.513Z,707.63
2018-03-08T07:41:21.980Z,707.51
2018-03-08T07:42:22.449Z,707.67
2018-03-08T07:43:22.915Z,707.59
2018-03-08T07:44:23.383Z,707.53
2018-03-08T07:45:23.850Z,707.37
2018-03-08T07:46:24.319Z,707.50
2018-03-08T07:47:24.837Z,707.47
2018-03-08T07:48:25.254Z,707.49
2018-03-08T07:49:25.730Z,707.56
2018-03-08T07:50:26.190Z,707.58
2018-03-08T07:51:26.668Z,707.77
2018-03-08T07:52:27.125Z,707.58
2018-03-08T07:53:27.595Z,707.73
2018-03-08T07:54:28.062Z,707.73
2018-03-08T07:55:28.531Z,707.73
2018-03-08T07:56:28.997Z,707.63
2018-03-08T07:57:29.466Z,707.67
2018-03-08T07:58:29.934Z,707.75
2018-03-08T07:59:30.402Z,707.78
2018-03-08T08:00:30.870Z,707.73
2018-03-08T08:01:31.341Z,707.77
2018-03-08T08:02:31.805Z,707.80
2018-03-08T08:03:32.274Z,707.80
2018-03-08T08:04:32.743Z,707.70
2018-03-08T08:05:33.210Z,707.73
2018-03-08T08:06:33.679Z,707.78
2018-03-08T08:07:34.151Z,707.83
2018-03-08T08:08:34.616Z,707.81
2018-03-08T08:09:35.082Z,707.75
2018-03-08T08:10:35.551Z,707.75
2018-03-08T08:11:36.021Z,707.80
2018-03-08T08:12:36.491Z,707.82
2018-03-08T08:13:36.959Z,707.88
2018-03-08T08:14:37.428Z,707.90
2018-03-08T08:15:37.894Z,707.91
2018-03-08T08:16:38.363Z,707.97
2018-03-08T08:17:38.831Z,707.94
2018-03-08T08:18:39.304Z,707.97
2018-03-08T08:19:39.768Z,707.97
2018-03-08T08:20:40.237Z,707.94
2018-03-08T08:21:40.706Z,707.92
2018-03-08T08:22:41.177Z,707.93
2018-03-08T08:23:41.643Z,707.96
2018-03-08T08:24:42.113Z,707.96
2018-03-08T08:25:42.582Z,707.94
2018-03-08T08:26:43.062Z,707.93
2018-03-08T08:27:43.519Z,707.86
2018-03-08T08:28:43.986Z,707.91
2018-03-08T08:29:44.460Z,707.90
2018-03-08T08:30:44.926Z,707.92
2018-03-08T08:31:45.393Z,707.93
2018-03-08T08:32:45.902Z,707.97
2018-03-08T08:33:46.331Z,708.00
2018-03-08T08:34:46.799Z,708.03
2018-03-08T08:35:47.269Z,707.96
2018-03-08T08:36:47.740Z,708.03
2018-03-08T08:37:48.207Z,708.04
2018-03-08T08:38:48.676Z,708.03
2018-03-08T08:39:49.145Z,708.04
2018-03-08T08:40:49.614Z,708.17
2018-03-08T08:41:50.082Z,708.12
2018-03-08T08:42:50.554Z,708.04
2018-03-08T08:43:51.021Z,708.02
2018-03-08T08:44:51.495Z,708.08
2018-03-08T08:45:51.961Z,708.09
2018-03-08T08:46:52.431Z,708.03
2018-03-08T08:47:52.899Z,708.02
2018-03-08T08:48:53.370Z,708.09
2018-03-08T08:49:53.885Z,708.10
2018-03-08T08:50:54.310Z,708.07
2018-03-08T08:51:54.780Z,708.04
2018-03-08T08:52:55.248Z,708.12
2018-03-08T08:53:55.720Z,708.14
2018-03-08T08:54:56.190Z,708.08
2018-03-08T08:55:56.663Z,708.09
2018-03-08T08:56:57.130Z,708.10
2018-03-08T08:57:57.601Z,708.05
2018-03-08T08:58:58.070Z,708.06
2018-03-08T08:59:58.541Z,708.12
2018-03-08T09:00:59.020Z,708.15
2018-03-08T09:01:59.824Z,708.10
2018-03-08T09:02:59.955Z,708.10
2018-03-08T09:04:00.426Z,708.12
2018-03-08T09:05:00.893Z,708.11
2018-03-08T09:06:01.370Z,708.05
2018-03-08T09:07:01.839Z,708.07
2018-03-08T09:08:02.359Z,708.13
2018-03-08T09:09:02.779Z,708.12
2018-03-08T09:10:03.253Z,708.14
2018-03-08T09:11:03.721Z,708.14
2018-03-08T09:12:04.196Z,708.16
2018-03-08T09:13:04.864Z,708.16
2018-03-08T09:14:05.134Z,708.13
2018-03-08T09:15:05.608Z,708.07
2018-03-08T09:16:06.079Z,708.04
2018-03-08T09:17:06.550Z,708.01
2018-03-08T09:18:07.071Z,707.99
2018-03-08T09:19:07.493Z,708.05
2018-03-08T09:20:07.963Z,708.08
2018-03-08T09:21:08.438Z,708.12
2018-03-08T09:22:08.907Z,708.18
2018-03-08T09:23:09.429Z,708.22
2018-03-08T09:24:09.848Z,708.08
2018-03-08T09:25:10.322Z,708.14
2018-03-08T09:26:10.794Z,708.17
2018-03-08T09:27:11.268Z,708.10
2018-03-08T09:28:11.788Z,708.22
2018-03-08T09:29:12.213Z,708.23
2018-03-08T09:30:12.682Z,708.25
2018-03-08T09:31:13.154Z,708.24
2018-03-08T09:32:13.626Z,708.27
2018-03-08T09:33:14.098Z,708.25
2018-03-08T09:34:14.572Z,708.19
2018-03-08T09:35:15.043Z,708.19
2018-03-08T09:36:15.516Z,708.33
2018-03-08T09:37:15.989Z,708.28
2018-03-08T09:38:16.615Z,708.32
2018-03-08T09:39:16.934Z,708.37
2018-03-08T09:40:17.406Z,708.29
2018-03-08T09:41:17.879Z,708.29
2018-03-08T09:42:18.353Z,708.16
2018-03-08T09:43:18.825Z,708.24
2018-03-08T09:44:19.299Z,708.30
2018-03-08T09:45:19.770Z,708.28
2018-03-08T09:46:20.245Z,708.29
2018-03-08T09:47:20.721Z,708.33
2018-03-08T09:48:21.241Z,708.32
2018-03-08T09:49:21.662Z,708.33
2018-03-08T09:50:22.137Z,708.34
2018-03-08T09:51:22.610Z,708.33
2018-03-08T09:52:23.083Z,708.33
2018-03-08T09:53:23.556Z,708.33
2018-03-08T09:54:24.032Z,708.30
2018-03-08T09:55:24.505Z,708.37
2018-03-08T09:56:24.978Z,708.30
2018-03-08T09:57:25.450Z,708.28
2018-03-08T09:58:25.923Z,708.38
2018-03-08T09:59:26.398Z,708.38
2018-03-08T10:00:26.872Z,708.29
2018-03-08T10:01:27.344Z,708.28
2018-03-08T10:02:27.819Z,708.38
2018-03-08T10:03:28.325Z,708.32
2018-03-08T10:04:28.765Z,708.34
2018-03-08T10:05:29.252Z,708.34
2018-03-08T10:06:29.716Z,708.36
2018-03-08T10:07:30.188Z,708.27
2018-03-08T10:08:30.662Z,708.30
2018-03-08T10:09:31.137Z,708.19
2018-03-08T10:10:31.609Z,708.41
2018-03-08T10:11:32.084Z,708.34
2018-03-08T10:12:32.557Z,708.43
2018-03-08T10:13:33.084Z,708.43
2018-03-08T10:14:33.507Z,708.41
2018-03-08T10:15:33.983Z,708.40
2018-03-08T10:16:34.454Z,708.54
2018-03-08T10:17:34.935Z,708.50
2018-03-08T10:18:35.448Z,708.44
2018-03-08T10:19:35.878Z,708.40
2018-03-08T10:20:36.353Z,708.47
2018-03-08T10:21:49.856Z,708.49
2018-03-08T10:22:37.305Z,708.61
2018-03-08T10:23:37.778Z,708.61
2018-03-08T10:24:38.252Z,708.46
2018-03-08T10:25:38.725Z,708.50
2018-03-08T10:26:39.200Z,708.54
2018-03-08T10:27:39.676Z,708.59
2018-03-08T10:28:40.151Z,708.52
2018-03-08T10:29:40.626Z,708.56
2018-03-08T10:30:41.101Z,708.51
2018-03-08T10:31:41.579Z,708.56
2018-03-08T10:32:42.052Z,708.64
2018-03-08T10:33:42.525Z,708.62
2018-03-08T10:34:43.033Z,708.62
2018-03-08T10:35:43.477Z,708.55
2018-03-08T10:36:43.950Z,708.57
2018-03-08T13:00:16.900Z,708.78
2018-03-08T13:01:17.353Z,708.85
2018-03-08T13:02:17.827Z,708.74
2018-03-08T13:03:18.501Z,708.67
2018-03-08T13:04:18.786Z,708.77
2018-03-08T13:05:19.241Z,708.81
2018-03-08T13:06:19.714Z,708.79
2018-03-08T13:07:20.187Z,708.86
2018-03-08T13:08:20.659Z,708.87
2018-03-08T13:09:21.138Z,708.83
2018-03-08T13:10:21.608Z,708.73
2018-03-08T13:11:22.079Z,708.87
2018-03-08T13:12:22.552Z,708.81
2018-03-08T13:13:23.025Z,708.92
2018-03-08T13:14:23.500Z,708.93
2018-03-08T13:15:24.176Z,708.88
2018-03-08T13:16:24.448Z,709.02
2018-03-08T13:17:24.919Z,708.94
2018-03-08T13:18:25.395Z,708.82
2018-03-08T13:19:25.868Z,708.94
2018-03-08T13:20:26.344Z,708.91
2018-03-08T13:21:26.815Z,709.00
2018-03-08T13:22:27.290Z,708.95
2018-03-08T13:23:27.763Z,708.79
2018-03-08T13:24:28.239Z,708.87
2018-03-08T13:25:28.713Z,708.94
2018-03-08T13:26:29.187Z,708.99
2018-03-08T13:27:29.664Z,708.91
2018-03-08T13:28:30.338Z,708.90
2018-03-08T13:29:30.610Z,708.94
2018-03-08T13:30:31.086Z,708.92
2018-03-08T13:31:31.562Z,708.82
2018-03-08T13:32:32.035Z,708.79
2018-03-08T13:33:32.511Z,708.84
2018-03-08T13:34:32.988Z,708.93
2018-03-08T13:35:33.465Z,708.66
2018-03-08T13:36:33.934Z,708.87
2018-03-08T13:37:34.411Z,708.88
2018-03-08T13:38:34.888Z,708.75
2018-03-08T13:39:35.362Z,708.76
2018-03-08T13:40:35.835Z,708.85
2018-03-08T13:41:36.314Z,708.86
2018-03-08T13:42:36.788Z,708.86
2018-03-08T13:43:37.492Z,708.84
2018-03-08T13:44:37.736Z,708.89
2018-03-08T13:45:38.214Z,708.83
2018-03-08T13:46:38.692Z,708.86
2018-03-08T13:47:39.162Z,708.79
2018-03-08T13:48:39.638Z,708.62
2018-03-08T13:49:40.113Z,708.71
2018-03-08T13:50:40.587Z,708.85
2018-03-08T13:51:41.065Z,708.54
2018-03-08T13:52:41.534Z,708.83
2018-03-08T13:53:42.012Z,708.72
2018-03-08T13:54:42.484Z,708.80
2018-03-08T13:55:43.007Z,708.76
2018-03-08T13:56:43.431Z,708.71
2018-03-08T13:57:43.902Z,708.69
2018-03-08T13:58:44.375Z,708.76
2018-03-08T13:59:44.850Z,708.73
2018-03-08T14:00:45.321Z,708.69
2018-03-08T14:01:45.792Z,708.82
2018-03-08T14:02:46.267Z,708.83
2018-03-08T14:03:46.737Z,708.77
2018-03-08T14:04:47.210Z,708.83
2018-03-08T14:05:47.680Z,708.74
2018-03-08T14:06:48.151Z,708.76
2018-03-08T14:07:48.623Z,708.77
2018-03-08T14:08:49.093Z,708.82
2018-03-08T14:09:49.563Z,708.86
2018-03-08T14:10:50.087Z,708.76
2018-03-08T14:11:50.507Z,708.62
2018-03-08T14:12:50.976Z,708.65
2018-03-08T14:13:51.454Z,708.70
2018-03-08T14:14:51.919Z,708.64
2018-03-08T14:15:52.443Z,708.69
2018-03-08T14:16:52.863Z,708.76
2018-03-08T14:17:53.333Z,708.79
2018-03-08T14:18:54.008Z,708.73
2018-03-08T14:19:54.275Z,708.72
2018-03-08T14:20:54.746Z,708.75
2018-03-08T14:21:55.217Z,708.72
2018-03-08T14:22:55.687Z,708.80
2018-03-08T14:23:56.160Z,708.74
2018-03-08T14:24:56.631Z,708.77
2018-03-08T14:25:57.153Z,708.67
2018-03-08T14:26:57.607Z,708.64
2018-03-08T14:27:58.045Z,708.56
2018-03-08T14:28:58.518Z,708.74
2018-03-08T14:29:58.990Z,708.63
2018-03-08T14:30:59.460Z,708.64
2018-03-08T14:31:59.971Z,708.70
2018-03-08T14:33:00.405Z,708.76
2018-03-08T14:34:00.875Z,708.71
2018-03-08T14:35:01.351Z,708.73
2018-03-08T14:36:01.893Z,708.75
2018-03-08T14:37:02.294Z,708.76
2018-03-08T14:38:02.768Z,708.73
2018-03-08T14:39:03.241Z,708.64
2018-03-08T14:40:03.714Z,708.67
2018-03-08T14:41:04.185Z,708.69
2018-03-08T14:42:04.677Z,708.75
2018-03-08T14:43:05.132Z,708.62
2018-03-08T14:44:05.606Z,708.71
2018-03-08T14:45:06.079Z,708.76
2018-03-08T14:46:06.553Z,708.67
2018-03-08T14:47:07.028Z,708.84
2018-03-08T14:48:07.500Z,708.63
2018-03-08T14:49:07.971Z,708.69
2018-03-08T14:50:08.447Z,708.76
2018-03-08T14:51:08.919Z,708.68
2018-03-08T14:52:09.403Z,708.70
2018-03-08T14:53:09.866Z,708.56
2018-03-08T14:54:10.342Z,708.59
2018-03-08T14:55:10.817Z,708.67
2018-03-08T14:56:11.343Z,708.59
2018-03-08T14:57:11.764Z,708.73